sensor_id;sensor_type;location;lat;lon;timestamp;P1;durP1;ratioP1;P2;durP2;ratioP2
45254;SDS011;30989;52.078;21.014;2022-12-05T00:01:53;20.00;;;9.25;;
45254;SDS011;30989;52.078;21.014;2022-12-05T00:04:18;21.73;;;10.30;;
45254;SDS011;30989;52.078;21.014;2022-12-05T00:06:44;22.30;;;10.57;;
45254;SDS011;30989;52.078;21.014;2022-12-05T00:09:10;23.90;;;10.32;;
45254;SDS011;30989;52.078;21.014;2022-12-05T00:11:37;21.88;;;9.98;;
45254;SDS011;30989;52.078;21.014;2022-12-05T00:14:04;18.90;;;9.35;;
45254;SDS011;30989;52.078;21.014;2022-12-05T00:16:31;22.52;;;10.98;;
45254;SDS011;30989;52.078;21.014;2022-12-05T00:19:00;20.63;;;9.30;;
45254;SDS011;30989;52.078;21.014;2022-12-05T00:21:28;15.93;;;8.15;;
45254;SDS011;30989;52.078;21.014;2022-12-05T00:23:56;19.77;;;10.20;;
45254;SDS011;30989;52.078;21.014;2022-12-05T00:26:23;24.15;;;10.32;;
45254;SDS011;30989;52.078;21.014;2022-12-05T00:28:49;18.95;;;9.73;;
45254;SDS011;30989;52.078;21.014;2022-12-05T00:31:17;21.08;;;9.90;;
45254;SDS011;30989;52.078;21.014;2022-12-05T00:33:44;21.17;;;10.30;;
45254;SDS011;30989;52.078;21.014;2022-12-05T00:36:11;19.35;;;9.52;;
45254;SDS011;30989;52.078;21.014;2022-12-05T00:38:39;20.80;;;9.82;;
45254;SDS011;30989;52.078;21.014;2022-12-05T00:41:06;17.33;;;8.75;;
45254;SDS011;30989;52.078;21.014;2022-12-05T00:43:37;19.70;;;8.50;;
45254;SDS011;30989;52.078;21.014;2022-12-05T00:46:03;19.05;;;9.32;;
45254;SDS011;30989;52.078;21.014;2022-12-05T00:48:30;19.15;;;10.02;;
45254;SDS011;30989;52.078;21.014;2022-12-05T00:50:59;25.55;;;11.50;;
45254;SDS011;30989;52.078;21.014;2022-12-05T00:53:38;22.05;;;11.10;;
45254;SDS011;30989;52.078;21.014;2022-12-05T00:56:05;20.20;;;9.55;;
45254;SDS011;30989;52.078;21.014;2022-12-05T00:58:34;22.05;;;10.13;;
45254;SDS011;30989;52.078;21.014;2022-12-05T01:01:08;25.38;;;11.13;;
45254;SDS011;30989;52.078;21.014;2022-12-05T01:03:35;18.85;;;9.48;;
45254;SDS011;30989;52.078;21.014;2022-12-05T01:06:01;24.00;;;10.93;;
45254;SDS011;30989;52.078;21.014;2022-12-05T01:08:27;18.98;;;8.65;;
45254;SDS011;30989;52.078;21.014;2022-12-05T01:10:53;21.70;;;10.05;;
45254;SDS011;30989;52.078;21.014;2022-12-05T01:13:19;24.38;;;11.65;;
45254;SDS011;30989;52.078;21.014;2022-12-05T01:15:45;21.52;;;10.80;;
45254;SDS011;30989;52.078;21.014;2022-12-05T01:18:11;20.48;;;9.73;;
45254;SDS011;30989;52.078;21.014;2022-12-05T01:20:39;19.95;;;9.80;;
45254;SDS011;30989;52.078;21.014;2022-12-05T01:23:06;18.15;;;8.68;;
45254;SDS011;30989;52.078;21.014;2022-12-05T01:25:32;21.27;;;9.57;;
45254;SDS011;30989;52.078;21.014;2022-12-05T01:27:58;22.65;;;10.52;;
45254;SDS011;30989;52.078;21.014;2022-12-05T01:30:23;19.55;;;8.75;;
45254;SDS011;30989;52.078;21.014;2022-12-05T01:32:49;20.60;;;10.43;;
45254;SDS011;30989;52.078;21.014;2022-12-05T01:35:14;21.77;;;9.27;;
45254;SDS011;30989;52.078;21.014;2022-12-05T01:37:40;22.25;;;10.88;;
45254;SDS011;30989;52.078;21.014;2022-12-05T01:40:05;23.52;;;9.63;;
45254;SDS011;30989;52.078;21.014;2022-12-05T01:42:32;21.23;;;10.18;;
45254;SDS011;30989;52.078;21.014;2022-12-05T01:44:59;19.77;;;8.43;;
45254;SDS011;30989;52.078;21.014;2022-12-05T01:47:28;19.65;;;9.18;;
45254;SDS011;30989;52.078;21.014;2022-12-05T01:49:55;20.50;;;9.77;;
45254;SDS011;30989;52.078;21.014;2022-12-05T01:52:22;19.52;;;9.05;;
45254;SDS011;30989;52.078;21.014;2022-12-05T01:54:51;20.40;;;8.80;;
45254;SDS011;30989;52.078;21.014;2022-12-05T01:57:20;20.40;;;9.10;;
45254;SDS011;30989;52.078;21.014;2022-12-05T01:59:48;19.65;;;8.60;;
45254;SDS011;30989;52.078;21.014;2022-12-05T02:02:17;21.65;;;8.73;;
45254;SDS011;30989;52.078;21.014;2022-12-05T02:05:04;16.60;;;7.55;;
45254;SDS011;30989;52.078;21.014;2022-12-05T02:07:50;19.52;;;9.13;;
45254;SDS011;30989;52.078;21.014;2022-12-05T02:10:17;15.15;;;7.82;;
45254;SDS011;30989;52.078;21.014;2022-12-05T02:12:43;14.98;;;7.82;;
45254;SDS011;30989;52.078;21.014;2022-12-05T02:18:12;20.00;;;8.70;;
45254;SDS011;30989;52.078;21.014;2022-12-05T02:26:40;15.48;;;6.65;;
45254;SDS011;30989;52.078;21.014;2022-12-05T02:34:53;19.58;;;8.93;;
45254;SDS011;30989;52.078;21.014;2022-12-05T02:37:28;20.48;;;8.88;;
45254;SDS011;30989;52.078;21.014;2022-12-05T02:40:08;15.27;;;7.43;;
45254;SDS011;30989;52.078;21.014;2022-12-05T02:42:49;24.90;;;9.95;;
45254;SDS011;30989;52.078;21.014;2022-12-05T02:45:21;16.17;;;8.43;;
45254;SDS011;30989;52.078;21.014;2022-12-05T02:47:50;19.65;;;10.05;;
45254;SDS011;30989;52.078;21.014;2022-12-05T02:50:21;21.45;;;10.00;;
45254;SDS011;30989;52.078;21.014;2022-12-05T02:52:50;19.48;;;8.18;;
45254;SDS011;30989;52.078;21.014;2022-12-05T02:55:20;18.50;;;8.98;;
45254;SDS011;30989;52.078;21.014;2022-12-05T02:57:49;16.40;;;8.00;;
45254;SDS011;30989;52.078;21.014;2022-12-05T03:00:19;14.52;;;6.68;;
45254;SDS011;30989;52.078;21.014;2022-12-05T03:02:46;18.05;;;8.45;;
45254;SDS011;30989;52.078;21.014;2022-12-05T03:07:53;18.35;;;8.50;;
45254;SDS011;30989;52.078;21.014;2022-12-05T03:10:22;17.35;;;9.55;;
45254;SDS011;30989;52.078;21.014;2022-12-05T03:12:54;17.50;;;8.52;;
45254;SDS011;30989;52.078;21.014;2022-12-05T03:15:28;11.15;;;5.78;;
45254;SDS011;30989;52.078;21.014;2022-12-05T03:17:59;16.20;;;7.32;;
45254;SDS011;30989;52.078;21.014;2022-12-05T03:20:38;13.70;;;6.97;;
45254;SDS011;30989;52.078;21.014;2022-12-05T03:26:04;12.60;;;6.90;;
45254;SDS011;30989;52.078;21.014;2022-12-05T03:28:59;16.58;;;6.72;;
45254;SDS011;30989;52.078;21.014;2022-12-05T03:34:44;14.15;;;8.00;;
45254;SDS011;30989;52.078;21.014;2022-12-05T03:37:35;17.17;;;8.43;;
45254;SDS011;30989;52.078;21.014;2022-12-05T03:49:02;14.43;;;7.28;;
45254;SDS011;30989;52.078;21.014;2022-12-05T03:51:34;17.00;;;8.55;;
45254;SDS011;30989;52.078;21.014;2022-12-05T03:54:07;16.65;;;7.80;;
45254;SDS011;30989;52.078;21.014;2022-12-05T03:56:43;18.52;;;8.15;;
45254;SDS011;30989;52.078;21.014;2022-12-05T03:59:16;15.35;;;7.43;;
45254;SDS011;30989;52.078;21.014;2022-12-05T04:02:11;15.10;;;7.75;;
45254;SDS011;30989;52.078;21.014;2022-12-05T04:07:25;13.90;;;7.63;;
45254;SDS011;30989;52.078;21.014;2022-12-05T04:09:58;15.90;;;8.52;;
45254;SDS011;30989;52.078;21.014;2022-12-05T04:12:36;16.45;;;7.65;;
45254;SDS011;30989;52.078;21.014;2022-12-05T04:15:16;15.50;;;7.85;;
45254;SDS011;30989;52.078;21.014;2022-12-05T04:17:51;17.63;;;7.80;;
45254;SDS011;30989;52.078;21.014;2022-12-05T04:20:27;14.25;;;7.93;;
45254;SDS011;30989;52.078;21.014;2022-12-05T04:23:17;14.02;;;7.72;;
45254;SDS011;30989;52.078;21.014;2022-12-05T04:28:50;14.43;;;7.15;;
45254;SDS011;30989;52.078;21.014;2022-12-05T04:31:23;16.45;;;7.97;;
45254;SDS011;30989;52.078;21.014;2022-12-05T04:33:58;14.75;;;7.47;;
45254;SDS011;30989;52.078;21.014;2022-12-05T04:36:33;13.48;;;7.80;;
45254;SDS011;30989;52.078;21.014;2022-12-05T04:39:05;18.58;;;8.30;;
45254;SDS011;30989;52.078;21.014;2022-12-05T04:44:16;14.55;;;7.80;;
45254;SDS011;30989;52.078;21.014;2022-12-05T04:46:46;14.75;;;7.40;;
45254;SDS011;30989;52.078;21.014;2022-12-05T04:49:15;15.50;;;7.85;;
45254;SDS011;30989;52.078;21.014;2022-12-05T04:51:46;16.40;;;6.85;;
45254;SDS011;30989;52.078;21.014;2022-12-05T04:54:20;11.48;;;6.13;;
45254;SDS011;30989;52.078;21.014;2022-12-05T04:56:52;13.68;;;8.25;;
45254;SDS011;30989;52.078;21.014;2022-12-05T04:59:23;13.20;;;6.88;;
45254;SDS011;30989;52.078;21.014;2022-12-05T05:01:56;13.30;;;6.43;;
45254;SDS011;30989;52.078;21.014;2022-12-05T05:04:37;12.88;;;7.70;;
45254;SDS011;30989;52.078;21.014;2022-12-05T05:07:07;16.80;;;8.65;;
45254;SDS011;30989;52.078;21.014;2022-12-05T05:09:34;14.40;;;7.40;;
45254;SDS011;30989;52.078;21.014;2022-12-05T05:12:01;18.27;;;9.23;;
45254;SDS011;30989;52.078;21.014;2022-12-05T05:14:26;14.23;;;7.03;;
45254;SDS011;30989;52.078;21.014;2022-12-05T05:16:52;16.83;;;7.45;;
45254;SDS011;30989;52.078;21.014;2022-12-05T05:19:17;15.35;;;7.90;;
45254;SDS011;30989;52.078;21.014;2022-12-05T05:21:43;15.65;;;7.22;;
45254;SDS011;30989;52.078;21.014;2022-12-05T05:24:09;15.52;;;7.82;;
45254;SDS011;30989;52.078;21.014;2022-12-05T05:26:38;20.00;;;9.27;;
45254;SDS011;30989;52.078;21.014;2022-12-05T05:29:05;13.63;;;7.00;;
45254;SDS011;30989;52.078;21.014;2022-12-05T05:31:31;11.77;;;6.57;;
45254;SDS011;30989;52.078;21.014;2022-12-05T05:33:56;16.17;;;7.85;;
45254;SDS011;30989;52.078;21.014;2022-12-05T05:36:23;13.02;;;6.47;;
45254;SDS011;30989;52.078;21.014;2022-12-05T05:38:51;19.52;;;9.05;;
45254;SDS011;30989;52.078;21.014;2022-12-05T05:41:19;14.25;;;7.78;;
45254;SDS011;30989;52.078;21.014;2022-12-05T05:43:46;17.05;;;8.43;;
45254;SDS011;30989;52.078;21.014;2022-12-05T05:46:13;17.92;;;8.65;;
45254;SDS011;30989;52.078;21.014;2022-12-05T05:48:40;15.32;;;8.35;;
45254;SDS011;30989;52.078;21.014;2022-12-05T05:51:06;15.63;;;7.68;;
45254;SDS011;30989;52.078;21.014;2022-12-05T05:53:33;19.60;;;8.25;;
45254;SDS011;30989;52.078;21.014;2022-12-05T05:56:02;13.65;;;7.18;;
45254;SDS011;30989;52.078;21.014;2022-12-05T05:58:29;13.63;;;7.10;;
45254;SDS011;30989;52.078;21.014;2022-12-05T06:01:00;15.02;;;7.82;;
45254;SDS011;30989;52.078;21.014;2022-12-05T06:03:29;17.95;;;8.27;;
45254;SDS011;30989;52.078;21.014;2022-12-05T06:05:56;16.55;;;8.18;;
45254;SDS011;30989;52.078;21.014;2022-12-05T06:08:27;13.25;;;6.70;;
45254;SDS011;30989;52.078;21.014;2022-12-05T06:10:56;16.00;;;7.80;;
45254;SDS011;30989;52.078;21.014;2022-12-05T06:13:22;14.38;;;7.45;;
45254;SDS011;30989;52.078;21.014;2022-12-05T06:15:48;12.90;;;7.45;;
45254;SDS011;30989;52.078;21.014;2022-12-05T06:18:13;15.93;;;8.63;;
45254;SDS011;30989;52.078;21.014;2022-12-05T06:20:40;14.02;;;6.28;;
45254;SDS011;30989;52.078;21.014;2022-12-05T06:23:06;15.57;;;7.55;;
45254;SDS011;30989;52.078;21.014;2022-12-05T06:25:32;17.45;;;8.57;;
45254;SDS011;30989;52.078;21.014;2022-12-05T06:27:57;20.83;;;8.48;;
45254;SDS011;30989;52.078;21.014;2022-12-05T06:30:23;16.98;;;7.65;;
45254;SDS011;30989;52.078;21.014;2022-12-05T06:32:48;13.23;;;6.95;;
45254;SDS011;30989;52.078;21.014;2022-12-05T06:35:13;12.73;;;6.47;;
45254;SDS011;30989;52.078;21.014;2022-12-05T06:37:43;16.83;;;7.35;;
45254;SDS011;30989;52.078;21.014;2022-12-05T06:40:12;19.45;;;9.10;;
45254;SDS011;30989;52.078;21.014;2022-12-05T06:42:38;13.75;;;7.15;;
45254;SDS011;30989;52.078;21.014;2022-12-05T06:45:04;13.45;;;6.13;;
45254;SDS011;30989;52.078;21.014;2022-12-05T06:47:30;12.38;;;6.72;;
45254;SDS011;30989;52.078;21.014;2022-12-05T06:49:55;16.55;;;7.93;;
45254;SDS011;30989;52.078;21.014;2022-12-05T06:52:21;12.25;;;6.13;;
45254;SDS011;30989;52.078;21.014;2022-12-05T06:54:46;14.35;;;7.18;;
45254;SDS011;30989;52.078;21.014;2022-12-05T06:57:12;15.27;;;7.53;;
45254;SDS011;30989;52.078;21.014;2022-12-05T06:59:38;14.18;;;6.78;;
45254;SDS011;30989;52.078;21.014;2022-12-05T07:02:03;14.77;;;7.15;;
45254;SDS011;30989;52.078;21.014;2022-12-05T07:04:32;13.02;;;6.65;;
45254;SDS011;30989;52.078;21.014;2022-12-05T07:06:58;14.75;;;7.43;;
45254;SDS011;30989;52.078;21.014;2022-12-05T07:09:26;19.83;;;8.73;;
45254;SDS011;30989;52.078;21.014;2022-12-05T07:12:12;15.18;;;7.18;;
45254;SDS011;30989;52.078;21.014;2022-12-05T07:14:39;15.45;;;7.90;;
45254;SDS011;30989;52.078;21.014;2022-12-05T07:17:05;15.95;;;8.57;;
45254;SDS011;30989;52.078;21.014;2022-12-05T07:19:31;15.27;;;7.50;;
45254;SDS011;30989;52.078;21.014;2022-12-05T07:21:56;13.55;;;7.72;;
45254;SDS011;30989;52.078;21.014;2022-12-05T07:24:22;20.38;;;9.75;;
45254;SDS011;30989;52.078;21.014;2022-12-05T07:26:47;16.35;;;8.68;;
45254;SDS011;30989;52.078;21.014;2022-12-05T07:29:13;16.08;;;7.85;;
45254;SDS011;30989;52.078;21.014;2022-12-05T07:31:38;17.70;;;8.38;;
45254;SDS011;30989;52.078;21.014;2022-12-05T07:34:03;17.88;;;8.63;;
45254;SDS011;30989;52.078;21.014;2022-12-05T07:36:32;16.30;;;7.65;;
45254;SDS011;30989;52.078;21.014;2022-12-05T07:38:58;14.25;;;7.53;;
45254;SDS011;30989;52.078;21.014;2022-12-05T07:41:24;18.63;;;8.70;;
45254;SDS011;30989;52.078;21.014;2022-12-05T07:43:52;15.05;;;7.72;;
45254;SDS011;30989;52.078;21.014;2022-12-05T07:46:19;16.27;;;8.32;;
45254;SDS011;30989;52.078;21.014;2022-12-05T07:48:46;15.63;;;7.78;;
45254;SDS011;30989;52.078;21.014;2022-12-05T07:51:12;17.48;;;8.82;;
45254;SDS011;30989;52.078;21.014;2022-12-05T07:53:38;16.10;;;8.38;;
45254;SDS011;30989;52.078;21.014;2022-12-05T07:56:06;19.52;;;8.73;;
45254;SDS011;30989;52.078;21.014;2022-12-05T07:58:32;18.25;;;8.25;;
45254;SDS011;30989;52.078;21.014;2022-12-05T08:01:12;15.23;;;6.97;;
45254;SDS011;30989;52.078;21.014;2022-12-05T08:03:42;23.48;;;9.48;;
45254;SDS011;30989;52.078;21.014;2022-12-05T08:06:10;21.17;;;10.52;;
45254;SDS011;30989;52.078;21.014;2022-12-05T08:08:37;19.42;;;8.73;;
45254;SDS011;30989;52.078;21.014;2022-12-05T08:11:04;20.33;;;9.07;;
45254;SDS011;30989;52.078;21.014;2022-12-05T08:13:31;20.67;;;8.88;;
45254;SDS011;30989;52.078;21.014;2022-12-05T08:16:05;14.77;;;7.50;;
45254;SDS011;30989;52.078;21.014;2022-12-05T08:18:32;16.75;;;6.82;;
45254;SDS011;30989;52.078;21.014;2022-12-05T08:21:04;19.90;;;8.07;;
45254;SDS011;30989;52.078;21.014;2022-12-05T08:23:38;18.98;;;8.77;;
45254;SDS011;30989;52.078;21.014;2022-12-05T08:26:04;15.75;;;7.88;;
45254;SDS011;30989;52.078;21.014;2022-12-05T08:28:33;23.88;;;10.25;;
45254;SDS011;30989;52.078;21.014;2022-12-05T08:31:03;20.77;;;8.23;;
45254;SDS011;30989;52.078;21.014;2022-12-05T08:33:36;16.55;;;8.40;;
45254;SDS011;30989;52.078;21.014;2022-12-05T08:36:03;18.35;;;10.00;;
45254;SDS011;30989;52.078;21.014;2022-12-05T08:38:33;17.38;;;8.45;;
45254;SDS011;30989;52.078;21.014;2022-12-05T08:41:00;21.30;;;9.20;;
45254;SDS011;30989;52.078;21.014;2022-12-05T08:43:29;16.00;;;7.88;;
45254;SDS011;30989;52.078;21.014;2022-12-05T08:45:55;17.83;;;9.18;;
45254;SDS011;30989;52.078;21.014;2022-12-05T08:48:21;20.50;;;10.00;;
45254;SDS011;30989;52.078;21.014;2022-12-05T08:50:47;22.55;;;10.38;;
45254;SDS011;30989;52.078;21.014;2022-12-05T08:53:13;19.75;;;8.48;;
45254;SDS011;30989;52.078;21.014;2022-12-05T08:55:39;17.67;;;7.93;;
45254;SDS011;30989;52.078;21.014;2022-12-05T08:58:05;22.58;;;10.32;;
45254;SDS011;30989;52.078;21.014;2022-12-05T09:00:30;19.85;;;8.73;;
45254;SDS011;30989;52.078;21.014;2022-12-05T09:02:56;20.27;;;8.77;;
45254;SDS011;30989;52.078;21.014;2022-12-05T09:05:22;20.67;;;9.27;;
45254;SDS011;30989;52.078;21.014;2022-12-05T09:07:49;22.20;;;10.15;;
45254;SDS011;30989;52.078;21.014;2022-12-05T09:10:14;22.00;;;9.75;;
45254;SDS011;30989;52.078;21.014;2022-12-05T09:12:40;25.23;;;10.60;;
45254;SDS011;30989;52.078;21.014;2022-12-05T09:15:06;17.80;;;9.38;;
45254;SDS011;30989;52.078;21.014;2022-12-05T09:17:33;24.02;;;10.85;;
45254;SDS011;30989;52.078;21.014;2022-12-05T09:19:58;21.52;;;9.07;;
45254;SDS011;30989;52.078;21.014;2022-12-05T09:22:24;18.92;;;8.25;;
45254;SDS011;30989;52.078;21.014;2022-12-05T09:24:50;24.65;;;11.52;;
45254;SDS011;30989;52.078;21.014;2022-12-05T09:27:15;21.27;;;10.05;;
45254;SDS011;30989;52.078;21.014;2022-12-05T09:29:41;23.45;;;10.57;;
45254;SDS011;30989;52.078;21.014;2022-12-05T09:32:07;26.35;;;10.70;;
45254;SDS011;30989;52.078;21.014;2022-12-05T09:34:33;21.55;;;10.25;;
45254;SDS011;30989;52.078;21.014;2022-12-05T09:37:00;19.58;;;9.95;;
45254;SDS011;30989;52.078;21.014;2022-12-05T09:39:29;20.23;;;8.90;;
45254;SDS011;30989;52.078;21.014;2022-12-05T09:44:55;21.92;;;10.05;;
45254;SDS011;30989;52.078;21.014;2022-12-05T09:49:59;24.42;;;11.13;;
45254;SDS011;30989;52.078;21.014;2022-12-05T09:52:36;22.77;;;10.07;;
45254;SDS011;30989;52.078;21.014;2022-12-05T09:55:05;20.20;;;8.68;;
45254;SDS011;30989;52.078;21.014;2022-12-05T09:57:39;22.40;;;10.02;;
45254;SDS011;30989;52.078;21.014;2022-12-05T10:00:11;23.17;;;11.05;;
45254;SDS011;30989;52.078;21.014;2022-12-05T10:08:00;26.55;;;10.80;;
45254;SDS011;30989;52.078;21.014;2022-12-05T10:10:44;28.13;;;10.27;;
45254;SDS011;30989;52.078;21.014;2022-12-05T10:16:11;26.75;;;10.55;;
45254;SDS011;30989;52.078;21.014;2022-12-05T10:18:43;26.50;;;11.38;;
45254;SDS011;30989;52.078;21.014;2022-12-05T10:21:14;26.58;;;11.18;;
45254;SDS011;30989;52.078;21.014;2022-12-05T10:23:52;29.30;;;11.75;;
45254;SDS011;30989;52.078;21.014;2022-12-05T10:26:31;30.85;;;13.27;;
45254;SDS011;30989;52.078;21.014;2022-12-05T10:31:41;25.65;;;11.02;;
45254;SDS011;30989;52.078;21.014;2022-12-05T10:34:11;30.42;;;11.73;;
45254;SDS011;30989;52.078;21.014;2022-12-05T10:36:45;26.60;;;12.25;;
45254;SDS011;30989;52.078;21.014;2022-12-05T10:39:20;26.48;;;9.48;;
45254;SDS011;30989;52.078;21.014;2022-12-05T10:41:46;26.77;;;11.32;;
45254;SDS011;30989;52.078;21.014;2022-12-05T10:44:12;32.33;;;12.60;;
45254;SDS011;30989;52.078;21.014;2022-12-05T10:46:38;27.00;;;11.75;;
45254;SDS011;30989;52.078;21.014;2022-12-05T10:49:07;24.77;;;9.68;;
45254;SDS011;30989;52.078;21.014;2022-12-05T10:51:35;18.17;;;8.85;;
45254;SDS011;30989;52.078;21.014;2022-12-05T10:54:22;26.60;;;10.40;;
45254;SDS011;30989;52.078;21.014;2022-12-05T10:56:52;37.22;;;13.63;;
45254;SDS011;30989;52.078;21.014;2022-12-05T10:59:19;27.60;;;12.57;;
45254;SDS011;30989;52.078;21.014;2022-12-05T11:01:51;26.48;;;10.98;;
45254;SDS011;30989;52.078;21.014;2022-12-05T11:04:20;30.10;;;12.80;;
45254;SDS011;30989;52.078;21.014;2022-12-05T11:06:53;34.90;;;13.00;;
45254;SDS011;30989;52.078;21.014;2022-12-05T11:09:29;31.17;;;12.00;;
45254;SDS011;30989;52.078;21.014;2022-12-05T11:12:13;23.20;;;10.40;;
45254;SDS011;30989;52.078;21.014;2022-12-05T11:14:58;37.65;;;12.43;;
45254;SDS011;30989;52.078;21.014;2022-12-05T11:17:28;28.75;;;11.80;;
45254;SDS011;30989;52.078;21.014;2022-12-05T11:20:02;30.10;;;12.77;;
45254;SDS011;30989;52.078;21.014;2022-12-05T11:22:49;30.38;;;13.25;;
45254;SDS011;30989;52.078;21.014;2022-12-05T11:30:54;31.05;;;13.25;;
45254;SDS011;30989;52.078;21.014;2022-12-05T11:33:21;30.02;;;11.60;;
45254;SDS011;30989;52.078;21.014;2022-12-05T11:35:49;30.77;;;12.23;;
45254;SDS011;30989;52.078;21.014;2022-12-05T11:38:18;31.80;;;13.10;;
45254;SDS011;30989;52.078;21.014;2022-12-05T11:49:13;27.75;;;11.70;;
45254;SDS011;30989;52.078;21.014;2022-12-05T11:54:54;30.65;;;12.32;;
45254;SDS011;30989;52.078;21.014;2022-12-05T12:00:28;32.30;;;12.60;;
45254;SDS011;30989;52.078;21.014;2022-12-05T12:14:38;32.83;;;13.10;;
45254;SDS011;30989;52.078;21.014;2022-12-05T12:17:18;32.92;;;12.32;;
45254;SDS011;30989;52.078;21.014;2022-12-05T12:33:33;29.25;;;13.18;;
45254;SDS011;30989;52.078;21.014;2022-12-05T12:36:12;31.50;;;13.27;;
45254;SDS011;30989;52.078;21.014;2022-12-05T12:41:56;36.47;;;15.35;;
45254;SDS011;30989;52.078;21.014;2022-12-05T12:46:58;35.80;;;13.73;;
45254;SDS011;30989;52.078;21.014;2022-12-05T12:51:53;31.70;;;13.25;;
45254;SDS011;30989;52.078;21.014;2022-12-05T12:54:32;40.40;;;14.55;;
45254;SDS011;30989;52.078;21.014;2022-12-05T13:02:34;34.03;;;13.57;;
45254;SDS011;30989;52.078;21.014;2022-12-05T13:05:14;40.42;;;15.35;;
45254;SDS011;30989;52.078;21.014;2022-12-05T13:07:48;39.13;;;15.00;;
45254;SDS011;30989;52.078;21.014;2022-12-05T13:12:47;40.10;;;17.10;;
45254;SDS011;30989;52.078;21.014;2022-12-05T13:15:15;36.75;;;14.13;;
45254;SDS011;30989;52.078;21.014;2022-12-05T13:17:44;46.28;;;18.42;;
45254;SDS011;30989;52.078;21.014;2022-12-05T13:20:16;44.65;;;15.88;;
45254;SDS011;30989;52.078;21.014;2022-12-05T13:22:44;29.08;;;11.75;;
45254;SDS011;30989;52.078;21.014;2022-12-05T13:25:13;40.45;;;17.38;;
45254;SDS011;30989;52.078;21.014;2022-12-05T13:27:40;31.00;;;12.07;;
45254;SDS011;30989;52.078;21.014;2022-12-05T13:30:22;33.40;;;13.27;;
45254;SDS011;30989;52.078;21.014;2022-12-05T13:32:50;47.28;;;17.73;;
45254;SDS011;30989;52.078;21.014;2022-12-05T13:35:25;36.97;;;14.77;;
45254;SDS011;30989;52.078;21.014;2022-12-05T13:38:29;41.50;;;16.05;;
45254;SDS011;30989;52.078;21.014;2022-12-05T13:41:20;34.20;;;13.65;;
45254;SDS011;30989;52.078;21.014;2022-12-05T13:44:05;36.80;;;14.32;;
45254;SDS011;30989;52.078;21.014;2022-12-05T13:46:37;20.35;;;7.88;;
45254;SDS011;30989;52.078;21.014;2022-12-05T13:49:51;31.45;;;11.93;;
45254;SDS011;30989;52.078;21.014;2022-12-05T13:52:11;27.95;;;12.18;;
45254;SDS011;30989;52.078;21.014;2022-12-05T13:54:43;34.72;;;12.68;;
45254;SDS011;30989;52.078;21.014;2022-12-05T14:00:03;40.72;;;14.55;;
45254;SDS011;30989;52.078;21.014;2022-12-05T14:07:46;36.15;;;15.43;;
45254;SDS011;30989;52.078;21.014;2022-12-05T14:15:38;31.33;;;12.35;;
45254;SDS011;30989;52.078;21.014;2022-12-05T14:21:02;35.88;;;14.73;;
45254;SDS011;30989;52.078;21.014;2022-12-05T14:23:45;33.35;;;13.20;;
45254;SDS011;30989;52.078;21.014;2022-12-05T14:29:13;36.42;;;14.23;;
45254;SDS011;30989;52.078;21.014;2022-12-05T14:34:34;33.15;;;13.52;;
45254;SDS011;30989;52.078;21.014;2022-12-05T14:37:02;36.22;;;14.10;;
45254;SDS011;30989;52.078;21.014;2022-12-05T14:42:06;35.55;;;14.52;;
45254;SDS011;30989;52.078;21.014;2022-12-05T14:44:48;34.25;;;14.13;;
45254;SDS011;30989;52.078;21.014;2022-12-05T14:47:19;29.42;;;13.80;;
45254;SDS011;30989;52.078;21.014;2022-12-05T14:49:51;34.85;;;14.38;;
45254;SDS011;30989;52.078;21.014;2022-12-05T14:52:25;28.48;;;12.15;;
45254;SDS011;30989;52.078;21.014;2022-12-05T14:54:55;35.00;;;14.52;;
45254;SDS011;30989;52.078;21.014;2022-12-05T14:57:25;34.85;;;14.90;;
45254;SDS011;30989;52.078;21.014;2022-12-05T14:59:57;32.10;;;14.93;;
45254;SDS011;30989;52.078;21.014;2022-12-05T15:02:28;34.83;;;14.32;;
45254;SDS011;30989;52.078;21.014;2022-12-05T15:05:03;32.67;;;12.85;;
45254;SDS011;30989;52.078;21.014;2022-12-05T15:07:34;29.15;;;12.52;;
45254;SDS011;30989;52.078;21.014;2022-12-05T15:10:05;32.60;;;13.73;;
45254;SDS011;30989;52.078;21.014;2022-12-05T15:15:14;33.20;;;13.60;;
45254;SDS011;30989;52.078;21.014;2022-12-05T15:17:45;28.10;;;14.67;;
45254;SDS011;30989;52.078;21.014;2022-12-05T15:31:55;36.70;;;15.57;;
45254;SDS011;30989;52.078;21.014;2022-12-05T15:42:14;25.35;;;11.38;;
45254;SDS011;30989;52.078;21.014;2022-12-05T15:44:40;33.97;;;13.93;;
45254;SDS011;30989;52.078;21.014;2022-12-05T15:47:14;39.25;;;17.38;;
45254;SDS011;30989;52.078;21.014;2022-12-05T15:49:47;36.90;;;13.23;;
45254;SDS011;30989;52.078;21.014;2022-12-05T15:52:24;35.58;;;15.77;;
45254;SDS011;30989;52.078;21.014;2022-12-05T15:54:59;44.13;;;15.75;;
45254;SDS011;30989;52.078;21.014;2022-12-05T15:57:37;33.42;;;14.35;;
45254;SDS011;30989;52.078;21.014;2022-12-05T16:00:15;34.38;;;16.10;;
45254;SDS011;30989;52.078;21.014;2022-12-05T16:08:16;45.65;;;16.50;;
45254;SDS011;30989;52.078;21.014;2022-12-05T16:10:42;33.40;;;12.88;;
45254;SDS011;30989;52.078;21.014;2022-12-05T16:13:12;34.17;;;14.70;;
45254;SDS011;30989;52.078;21.014;2022-12-05T16:15:46;47.65;;;17.75;;
45254;SDS011;30989;52.078;21.014;2022-12-05T16:18:25;37.60;;;14.93;;
45254;SDS011;30989;52.078;21.014;2022-12-05T16:20:53;34.90;;;14.77;;
45254;SDS011;30989;52.078;21.014;2022-12-05T16:23:23;37.28;;;15.75;;
45254;SDS011;30989;52.078;21.014;2022-12-05T16:28:38;39.35;;;15.15;;
45254;SDS011;30989;52.078;21.014;2022-12-05T16:31:04;33.67;;;13.35;;
45254;SDS011;30989;52.078;21.014;2022-12-05T16:33:30;40.25;;;14.73;;
45254;SDS011;30989;52.078;21.014;2022-12-05T16:36:09;41.97;;;16.38;;
45254;SDS011;30989;52.078;21.014;2022-12-05T16:38:36;36.15;;;14.70;;
45254;SDS011;30989;52.078;21.014;2022-12-05T16:41:05;42.03;;;15.38;;
45254;SDS011;30989;52.078;21.014;2022-12-05T16:48:39;40.85;;;15.52;;
45254;SDS011;30989;52.078;21.014;2022-12-05T16:51:18;35.92;;;14.68;;
45254;SDS011;30989;52.078;21.014;2022-12-05T16:53:49;39.47;;;17.08;;
45254;SDS011;30989;52.078;21.014;2022-12-05T16:58:49;39.85;;;16.17;;
45254;SDS011;30989;52.078;21.014;2022-12-05T17:01:16;38.65;;;15.75;;
45254;SDS011;30989;52.078;21.014;2022-12-05T17:03:47;48.85;;;19.48;;
45254;SDS011;30989;52.078;21.014;2022-12-05T17:06:13;38.33;;;16.75;;
45254;SDS011;30989;52.078;21.014;2022-12-05T17:08:40;40.38;;;17.23;;
45254;SDS011;30989;52.078;21.014;2022-12-05T17:11:10;35.58;;;15.20;;
45254;SDS011;30989;52.078;21.014;2022-12-05T17:13:41;40.10;;;17.10;;
45254;SDS011;30989;52.078;21.014;2022-12-05T17:16:09;37.60;;;15.27;;
45254;SDS011;30989;52.078;21.014;2022-12-05T17:18:35;31.27;;;14.23;;
45254;SDS011;30989;52.078;21.014;2022-12-05T17:21:00;33.88;;;13.93;;
45254;SDS011;30989;52.078;21.014;2022-12-05T17:23:26;32.30;;;15.85;;
45254;SDS011;30989;52.078;21.014;2022-12-05T17:25:55;40.35;;;16.58;;
45254;SDS011;30989;52.078;21.014;2022-12-05T17:28:22;31.75;;;15.55;;
45254;SDS011;30989;52.078;21.014;2022-12-05T17:30:48;44.67;;;17.63;;
45254;SDS011;30989;52.078;21.014;2022-12-05T17:33:15;27.30;;;12.98;;
45254;SDS011;30989;52.078;21.014;2022-12-05T17:35:42;37.50;;;15.25;;